sensor_id;sensor_type;location;lat;lon;timestamp;temperature;humidity
5059;DHT22;2548;52.050;11.036;2023-04-30T00:00:35;5.90;99.90
5059;DHT22;2548;52.050;11.036;2023-04-30T00:03:04;5.90;99.90
5059;DHT22;2548;52.050;11.036;2023-04-30T00:05:32;5.80;99.90
5059;DHT22;2548;52.050;11.036;2023-04-30T00:07:59;5.80;99.90
5059;DHT22;2548;52.050;11.036;2023-04-30T00:10:26;5.70;99.90
5059;DHT22;2548;52.050;11.036;2023-04-30T00:12:54;5.70;99.90
5059;DHT22;2548;52.050;11.036;2023-04-30T00:15:22;5.70;99.90
5059;DHT22;2548;52.050;11.036;2023-04-30T00:17:49;5.60;99.90
5059;DHT22;2548;52.050;11.036;2023-04-30T00:20:19;5.70;99.90
5059;DHT22;2548;52.050;11.036;2023-04-30T00:22:47;5.70;99.90
5059;DHT22;2548;52.050;11.036;2023-04-30T00:25:14;5.70;99.90
5059;DHT22;2548;52.050;11.036;2023-04-30T00:27:42;5.70;99.90
5059;DHT22;2548;52.050;11.036;2023-04-30T00:30:10;5.60;99.90
5059;DHT22;2548;52.050;11.036;2023-04-30T00:32:38;5.60;99.90
5059;DHT22;2548;52.050;11.036;2023-04-30T00:35:05;5.50;99.90
5059;DHT22;2548;52.050;11.036;2023-04-30T00:37:34;5.50;99.90
5059;DHT22;2548;52.050;11.036;2023-04-30T00:40:02;5.40;99.90
5059;DHT22;2548;52.050;11.036;2023-04-30T00:42:30;5.40;99.90
5059;DHT22;2548;52.050;11.036;2023-04-30T00:44:57;5.40;99.90
5059;DHT22;2548;52.050;11.036;2023-04-30T00:47:24;5.40;99.90
5059;DHT22;2548;52.050;11.036;2023-04-30T00:49:52;5.30;99.90
5059;DHT22;2548;52.050;11.036;2023-04-30T00:52:20;5.20;99.90
5059;DHT22;2548;52.050;11.036;2023-04-30T00:54:48;5.10;99.90
5059;DHT22;2548;52.050;11.036;2023-04-30T00:57:19;5.00;99.90
5059;DHT22;2548;52.050;11.036;2023-04-30T00:59:48;5.00;99.90
5059;DHT22;2548;52.050;11.036;2023-04-30T01:02:16;4.90;99.90
5059;DHT22;2548;52.050;11.036;2023-04-30T01:04:44;4.90;99.90
5059;DHT22;2548;52.050;11.036;2023-04-30T01:07:12;4.90;99.90
5059;DHT22;2548;52.050;11.036;2023-04-30T01:09:40;4.80;99.90
5059;DHT22;2548;52.050;11.036;2023-04-30T01:12:12;4.70;99.90
5059;DHT22;2548;52.050;11.036;2023-04-30T01:14:52;4.70;99.90
5059;DHT22;2548;52.050;11.036;2023-04-30T01:17:35;4.70;99.90
5059;DHT22;2548;52.050;11.036;2023-04-30T01:20:06;4.70;99.90
5059;DHT22;2548;52.050;11.036;2023-04-30T01:22:41;4.80;99.90
5059;DHT22;2548;52.050;11.036;2023-04-30T01:25:24;4.80;99.90
5059;DHT22;2548;52.050;11.036;2023-04-30T01:28:05;4.80;99.90
5059;DHT22;2548;52.050;11.036;2023-04-30T01:30:35;4.80;99.90
5059;DHT22;2548;52.050;11.036;2023-04-30T01:33:03;4.70;99.90
5059;DHT22;2548;52.050;11.036;2023-04-30T01:35:47;4.70;99.90
5059;DHT22;2548;52.050;11.036;2023-04-30T01:38:24;4.70;99.90
5059;DHT22;2548;52.050;11.036;2023-04-30T01:41:01;4.70;99.90
5059;DHT22;2548;52.050;11.036;2023-04-30T01:43:39;4.80;99.90
5059;DHT22;2548;52.050;11.036;2023-04-30T01:46:13;4.80;99.90
5059;DHT22;2548;52.050;11.036;2023-04-30T01:48:52;4.80;99.90
5059;DHT22;2548;52.050;11.036;2023-04-30T01:51:27;4.80;99.90
5059;DHT22;2548;52.050;11.036;2023-04-30T01:54:01;4.70;99.90
5059;DHT22;2548;52.050;11.036;2023-04-30T01:56:31;4.70;99.90
5059;DHT22;2548;52.050;11.036;2023-04-30T01:59:05;4.70;99.90
5059;DHT22;2548;52.050;11.036;2023-04-30T02:01:33;4.70;99.90
5059;DHT22;2548;52.050;11.036;2023-04-30T02:04:01;4.60;99.90
5059;DHT22;2548;52.050;11.036;2023-04-30T02:06:28;4.60;99.90
5059;DHT22;2548;52.050;11.036;2023-04-30T02:08:57;4.60;99.90
5059;DHT22;2548;52.050;11.036;2023-04-30T02:11:28;4.60;99.90
5059;DHT22;2548;52.050;11.036;2023-04-30T02:13:55;4.60;99.90
5059;DHT22;2548;52.050;11.036;2023-04-30T02:16:24;4.50;99.90
5059;DHT22;2548;52.050;11.036;2023-04-30T02:18:52;4.50;99.90
5059;DHT22;2548;52.050;11.036;2023-04-30T02:21:19;4.50;99.90
5059;DHT22;2548;52.050;11.036;2023-04-30T02:23:47;4.40;99.90
5059;DHT22;2548;52.050;11.036;2023-04-30T02:26:14;4.40;99.90
5059;DHT22;2548;52.050;11.036;2023-04-30T02:28:42;4.30;99.90
5059;DHT22;2548;52.050;11.036;2023-04-30T02:31:10;4.30;99.90
5059;DHT22;2548;52.050;11.036;2023-04-30T02:33:39;4.30;99.90
5059;DHT22;2548;52.050;11.036;2023-04-30T02:36:06;4.30;99.90
5059;DHT22;2548;52.050;11.036;2023-04-30T02:38:34;4.30;99.90
5059;DHT22;2548;52.050;11.036;2023-04-30T02:41:01;4.20;99.90
5059;DHT22;2548;52.050;11.036;2023-04-30T02:43:29;4.20;99.90
5059;DHT22;2548;52.050;11.036;2023-04-30T02:45:56;4.20;99.90
5059;DHT22;2548;52.050;11.036;2023-04-30T02:48:24;4.10;99.90
5059;DHT22;2548;52.050;11.036;2023-04-30T02:50:54;4.10;99.90
5059;DHT22;2548;52.050;11.036;2023-04-30T02:53:21;4.10;99.90
5059;DHT22;2548;52.050;11.036;2023-04-30T02:55:48;4.10;99.90
5059;DHT22;2548;52.050;11.036;2023-04-30T02:58:16;4.20;99.90
5059;DHT22;2548;52.050;11.036;2023-04-30T03:00:43;4.20;99.90
5059;DHT22;2548;52.050;11.036;2023-04-30T03:03:11;4.30;99.90
5059;DHT22;2548;52.050;11.036;2023-04-30T03:05:38;4.40;99.90
5059;DHT22;2548;52.050;11.036;2023-04-30T03:08:07;4.40;99.90
5059;DHT22;2548;52.050;11.036;2023-04-30T03:10:34;4.40;99.90
5059;DHT22;2548;52.050;11.036;2023-04-30T03:13:02;4.50;99.90
5059;DHT22;2548;52.050;11.036;2023-04-30T03:15:31;4.40;99.90
5059;DHT22;2548;52.050;11.036;2023-04-30T03:17:59;4.40;99.90
5059;DHT22;2548;52.050;11.036;2023-04-30T03:20:26;4.40;99.90
5059;DHT22;2548;52.050;11.036;2023-04-30T03:22:54;4.40;99.90
5059;DHT22;2548;52.050;11.036;2023-04-30T03:25:23;4.30;99.90
5059;DHT22;2548;52.050;11.036;2023-04-30T03:27:50;4.30;99.90
5059;DHT22;2548;52.050;11.036;2023-04-30T03:30:17;4.20;99.90
5059;DHT22;2548;52.050;11.036;2023-04-30T03:32:45;4.10;99.90
5059;DHT22;2548;52.050;11.036;2023-04-30T03:35:13;4.00;99.90
5059;DHT22;2548;52.050;11.036;2023-04-30T03:37:41;4.00;99.90
5059;DHT22;2548;52.050;11.036;2023-04-30T03:40:11;4.00;99.90
5059;DHT22;2548;52.050;11.036;2023-04-30T03:42:40;4.00;99.90
5059;DHT22;2548;52.050;11.036;2023-04-30T03:45:08;3.90;99.90
5059;DHT22;2548;52.050;11.036;2023-04-30T03:47:35;3.90;99.90
5059;DHT22;2548;52.050;11.036;2023-04-30T03:50:03;3.90;99.90
5059;DHT22;2548;52.050;11.036;2023-04-30T03:52:31;3.90;99.90
5059;DHT22;2548;52.050;11.036;2023-04-30T03:54:58;3.90;99.90
5059;DHT22;2548;52.050;11.036;2023-04-30T03:57:26;3.90;99.90
5059;DHT22;2548;52.050;11.036;2023-04-30T03:59:55;3.90;99.90
5059;DHT22;2548;52.050;11.036;2023-04-30T04:02:22;4.00;99.90
5059;DHT22;2548;52.050;11.036;2023-04-30T04:04:51;4.00;99.90
5059;DHT22;2548;52.050;11.036;2023-04-30T04:07:18;4.00;99.90
5059;DHT22;2548;52.050;11.036;2023-04-30T04:09:46;4.00;99.90
5059;DHT22;2548;52.050;11.036;2023-04-30T04:12:14;4.00;99.90
5059;DHT22;2548;52.050;11.036;2023-04-30T04:14:42;4.00;99.90
5059;DHT22;2548;52.050;11.036;2023-04-30T04:17:10;4.00;99.90
5059;DHT22;2548;52.050;11.036;2023-04-30T04:19:39;4.00;99.90
5059;DHT22;2548;52.050;11.036;2023-04-30T04:22:06;4.00;99.90
5059;DHT22;2548;52.050;11.036;2023-04-30T04:24:34;4.00;99.90
5059;DHT22;2548;52.050;11.036;2023-04-30T04:27:02;4.00;99.90
5059;DHT22;2548;52.050;11.036;2023-04-30T04:29:29;4.00;99.90
5059;DHT22;2548;52.050;11.036;2023-04-30T04:31:57;3.90;99.90
5059;DHT22;2548;52.050;11.036;2023-04-30T04:34:27;4.00;99.90
5059;DHT22;2548;52.050;11.036;2023-04-30T04:36:54;4.00;99.90
5059;DHT22;2548;52.050;11.036;2023-04-30T04:39:23;4.00;99.90
5059;DHT22;2548;52.050;11.036;2023-04-30T04:41:51;4.10;99.90
5059;DHT22;2548;52.050;11.036;2023-04-30T04:44:18;4.20;99.90
5059;DHT22;2548;52.050;11.036;2023-04-30T04:46:46;4.30;99.90
5059;DHT22;2548;52.050;11.036;2023-04-30T04:49:13;4.40;99.90
5059;DHT22;2548;52.050;11.036;2023-04-30T04:51:42;4.50;99.90
5059;DHT22;2548;52.050;11.036;2023-04-30T04:54:10;4.50;99.90
5059;DHT22;2548;52.050;11.036;2023-04-30T04:56:38;4.40;99.90
5059;DHT22;2548;52.050;11.036;2023-04-30T04:59:05;4.40;99.90
5059;DHT22;2548;52.050;11.036;2023-04-30T05:01:33;4.50;99.90
5059;DHT22;2548;52.050;11.036;2023-04-30T05:04:00;4.50;99.90
5059;DHT22;2548;52.050;11.036;2023-04-30T05:06:28;4.50;99.90
5059;DHT22;2548;52.050;11.036;2023-04-30T05:08:57;4.50;99.90
5059;DHT22;2548;52.050;11.036;2023-04-30T05:11:24;4.50;99.90
5059;DHT22;2548;52.050;11.036;2023-04-30T05:13:52;4.50;99.90
5059;DHT22;2548;52.050;11.036;2023-04-30T05:16:19;4.50;99.90
5059;DHT22;2548;52.050;11.036;2023-04-30T05:18:46;4.50;99.90
5059;DHT22;2548;52.050;11.036;2023-04-30T05:21:14;4.50;99.90
5059;DHT22;2548;52.050;11.036;2023-04-30T05:23:42;4.60;99.90
5059;DHT22;2548;52.050;11.036;2023-04-30T05:26:11;4.60;99.90
5059;DHT22;2548;52.050;11.036;2023-04-30T05:28:39;4.70;99.90
5059;DHT22;2548;52.050;11.036;2023-04-30T05:31:07;4.70;99.90
5059;DHT22;2548;52.050;11.036;2023-04-30T05:33:34;4.80;99.90
5059;DHT22;2548;52.050;11.036;2023-04-30T05:36:03;4.90;99.90
5059;DHT22;2548;52.050;11.036;2023-04-30T05:38:30;4.90;99.90
5059;DHT22;2548;52.050;11.036;2023-04-30T05:40:59;5.00;99.90
5059;DHT22;2548;52.050;11.036;2023-04-30T05:43:28;5.10;99.90
5059;DHT22;2548;52.050;11.036;2023-04-30T05:45:55;5.10;99.90
5059;DHT22;2548;52.050;11.036;2023-04-30T05:48:23;5.20;99.90
5059;DHT22;2548;52.050;11.036;2023-04-30T05:50:50;5.30;99.90
5059;DHT22;2548;52.050;11.036;2023-04-30T05:53:17;5.40;99.90
5059;DHT22;2548;52.050;11.036;2023-04-30T05:55:45;5.40;99.90
5059;DHT22;2548;52.050;11.036;2023-04-30T05:58:12;5.50;99.90
5059;DHT22;2548;52.050;11.036;2023-04-30T06:00:41;5.60;99.90
5059;DHT22;2548;52.050;11.036;2023-04-30T06:03:09;5.70;99.90
5059;DHT22;2548;52.050;11.036;2023-04-30T06:05:36;5.80;99.90
5059;DHT22;2548;52.050;11.036;2023-04-30T06:08:06;5.90;99.90
5059;DHT22;2548;52.050;11.036;2023-04-30T06:10:34;6.00;99.90
5059;DHT22;2548;52.050;11.036;2023-04-30T06:13:01;6.10;99.90
5059;DHT22;2548;52.050;11.036;2023-04-30T06:15:29;6.20;99.90
5059;DHT22;2548;52.050;11.036;2023-04-30T06:17:58;6.30;99.90
5059;DHT22;2548;52.050;11.036;2023-04-30T06:20:25;6.30;99.90
5059;DHT22;2548;52.050;11.036;2023-04-30T06:22:53;6.30;99.90
5059;DHT22;2548;52.050;11.036;2023-04-30T06:25:20;6.40;99.90
5059;DHT22;2548;52.050;11.036;2023-04-30T06:27:48;6.50;99.90
5059;DHT22;2548;52.050;11.036;2023-04-30T06:30:16;6.60;99.90
5059;DHT22;2548;52.050;11.036;2023-04-30T06:32:44;6.60;99.90
5059;DHT22;2548;52.050;11.036;2023-04-30T06:35:13;6.70;99.90
5059;DHT22;2548;52.050;11.036;2023-04-30T06:37:40;6.80;99.90
5059;DHT22;2548;52.050;11.036;2023-04-30T06:40:08;6.90;99.90
5059;DHT22;2548;52.050;11.036;2023-04-30T06:42:36;7.00;99.90
5059;DHT22;2548;52.050;11.036;2023-04-30T06:45:04;7.10;99.90
5059;DHT22;2548;52.050;11.036;2023-04-30T06:47:32;7.20;99.90
5059;DHT22;2548;52.050;11.036;2023-04-30T06:50:01;7.30;99.90
5059;DHT22;2548;52.050;11.036;2023-04-30T06:52:30;7.30;99.90
5059;DHT22;2548;52.050;11.036;2023-04-30T06:54:57;7.30;99.90
5059;DHT22;2548;52.050;11.036;2023-04-30T06:57:26;7.30;99.90
5059;DHT22;2548;52.050;11.036;2023-04-30T06:59:53;7.30;99.90
5059;DHT22;2548;52.050;11.036;2023-04-30T07:02:21;7.30;99.90
5059;DHT22;2548;52.050;11.036;2023-04-30T07:04:49;7.40;99.90
5059;DHT22;2548;52.050;11.036;2023-04-30T07:07:16;7.50;99.90
5059;DHT22;2548;52.050;11.036;2023-04-30T07:09:45;7.50;99.90
5059;DHT22;2548;52.050;11.036;2023-04-30T07:12:12;7.60;99.90
5059;DHT22;2548;52.050;11.036;2023-04-30T07:14:40;7.80;99.90
5059;DHT22;2548;52.050;11.036;2023-04-30T07:17:09;8.00;99.90
5059;DHT22;2548;52.050;11.036;2023-04-30T07:19:37;8.20;99.90
5059;DHT22;2548;52.050;11.036;2023-04-30T07:22:04;8.30;99.90
5059;DHT22;2548;52.050;11.036;2023-04-30T07:24:32;8.40;99.90
5059;DHT22;2548;52.050;11.036;2023-04-30T07:27:01;8.40;99.90
5059;DHT22;2548;52.050;11.036;2023-04-30T07:29:29;8.40;99.90
5059;DHT22;2548;52.050;11.036;2023-04-30T07:31:57;8.50;99.90
5059;DHT22;2548;52.050;11.036;2023-04-30T07:34:24;8.50;99.90
5059;DHT22;2548;52.050;11.036;2023-04-30T07:36:53;8.50;99.90
5059;DHT22;2548;52.050;11.036;2023-04-30T07:39:20;8.50;99.90
5059;DHT22;2548;52.050;11.036;2023-04-30T07:41:48;8.70;99.90
5059;DHT22;2548;52.050;11.036;2023-04-30T07:44:16;8.60;99.90
5059;DHT22;2548;52.050;11.036;2023-04-30T07:46:44;8.60;99.90
5059;DHT22;2548;52.050;11.036;2023-04-30T07:49:11;8.80;99.90
5059;DHT22;2548;52.050;11.036;2023-04-30T07:51:39;8.80;99.90
5059;DHT22;2548;52.050;11.036;2023-04-30T07:54:08;8.90;99.90
5059;DHT22;2548;52.050;11.036;2023-04-30T07:56:35;8.90;99.90
5059;DHT22;2548;52.050;11.036;2023-04-30T07:59:03;9.10;99.90
5059;DHT22;2548;52.050;11.036;2023-04-30T08:01:31;9.20;99.90
5059;DHT22;2548;52.050;11.036;2023-04-30T08:03:59;9.30;99.90
5059;DHT22;2548;52.050;11.036;2023-04-30T08:06:26;9.30;99.90
5059;DHT22;2548;52.050;11.036;2023-04-30T08:08:54;9.30;99.90
5059;DHT22;2548;52.050;11.036;2023-04-30T08:11:21;9.30;99.90
5059;DHT22;2548;52.050;11.036;2023-04-30T08:13:48;9.20;99.90
5059;DHT22;2548;52.050;11.036;2023-04-30T08:16:16;9.20;99.90
5059;DHT22;2548;52.050;11.036;2023-04-30T08:18:45;9.40;99.90
5059;DHT22;2548;52.050;11.036;2023-04-30T08:21:15;9.50;99.90
5059;DHT22;2548;52.050;11.036;2023-04-30T08:23:43;9.60;99.90
5059;DHT22;2548;52.050;11.036;2023-04-30T08:26:11;9.80;99.90
5059;DHT22;2548;52.050;11.036;2023-04-30T08:28:46;10.00;99.90
5059;DHT22;2548;52.050;11.036;2023-04-30T08:31:14;10.30;99.90
5059;DHT22;2548;52.050;11.036;2023-04-30T08:33:46;10.30;99.90
5059;DHT22;2548;52.050;11.036;2023-04-30T08:36:13;10.30;99.90
5059;DHT22;2548;52.050;11.036;2023-04-30T08:38:41;10.30;99.90
5059;DHT22;2548;52.050;11.036;2023-04-30T08:41:11;10.30;99.90
5059;DHT22;2548;52.050;11.036;2023-04-30T08:43:40;10.30;99.90
5059;DHT22;2548;52.050;11.036;2023-04-30T08:46:07;10.40;99.90
5059;DHT22;2548;52.050;11.036;2023-04-30T08:48:40;10.60;99.90
5059;DHT22;2548;52.050;11.036;2023-04-30T08:51:12;10.70;99.90
5059;DHT22;2548;52.050;11.036;2023-04-30T08:53:41;10.80;99.90
5059;DHT22;2548;52.050;11.036;2023-04-30T08:56:09;10.80;99.90
5059;DHT22;2548;52.050;11.036;2023-04-30T08:58:38;10.90;99.90
5059;DHT22;2548;52.050;11.036;2023-04-30T09:01:07;11.00;99.90
5059;DHT22;2548;52.050;11.036;2023-04-30T09:03:36;11.00;99.90
5059;DHT22;2548;52.050;11.036;2023-04-30T09:06:15;11.00;99.90
5059;DHT22;2548;52.050;11.036;2023-04-30T09:08:44;11.00;99.90
5059;DHT22;2548;52.050;11.036;2023-04-30T09:11:26;11.10;99.90
5059;DHT22;2548;52.050;11.036;2023-04-30T09:13:57;11.20;99.90
5059;DHT22;2548;52.050;11.036;2023-04-30T09:16:43;11.30;99.90
5059;DHT22;2548;52.050;11.036;2023-04-30T09:19:25;11.40;99.90
5059;DHT22;2548;52.050;11.036;2023-04-30T09:21:54;11.40;99.90
5059;DHT22;2548;52.050;11.036;2023-04-30T09:24:22;11.50;99.90
5059;DHT22;2548;52.050;11.036;2023-04-30T09:26:51;11.50;99.90
5059;DHT22;2548;52.050;11.036;2023-04-30T09:29:18;11.50;99.90
5059;DHT22;2548;52.050;11.036;2023-04-30T09:31:46;11.70;99.90
5059;DHT22;2548;52.050;11.036;2023-04-30T09:34:14;11.70;99.90
5059;DHT22;2548;52.050;11.036;2023-04-30T09:37:08;11.80;99.90
5059;DHT22;2548;52.050;11.036;2023-04-30T09:39:49;12.00;99.90
5059;DHT22;2548;52.050;11.036;2023-04-30T09:42:29;12.00;99.90
5059;DHT22;2548;52.050;11.036;2023-04-30T09:44:57;12.00;99.90
5059;DHT22;2548;52.050;11.036;2023-04-30T09:47:28;12.00;99.90
5059;DHT22;2548;52.050;11.036;2023-04-30T09:49:58;12.20;99.90
5059;DHT22;2548;52.050;11.036;2023-04-30T09:52:31;12.30;99.90
5059;DHT22;2548;52.050;11.036;2023-04-30T09:54:59;12.50;99.90
5059;DHT22;2548;52.050;11.036;2023-04-30T09:57:28;12.50;99.90
5059;DHT22;2548;52.050;11.036;2023-04-30T09:59:57;12.60;99.90
5059;DHT22;2548;52.050;11.036;2023-04-30T10:02:41;12.50;99.90
5059;DHT22;2548;52.050;11.036;2023-04-30T10:05:09;12.50;99.90
5059;DHT22;2548;52.050;11.036;2023-04-30T10:07:41;12.60;99.90
5059;DHT22;2548;52.050;11.036;2023-04-30T10:10:09;12.80;99.90
5059;DHT22;2548;52.050;11.036;2023-04-30T10:12:41;12.80;99.90
5059;DHT22;2548;52.050;11.036;2023-04-30T10:15:16;12.80;99.90
5059;DHT22;2548;52.050;11.036;2023-04-30T10:17:51;12.80;99.90
5059;DHT22;2548;52.050;11.036;2023-04-30T10:20:21;13.00;99.90
5059;DHT22;2548;52.050;11.036;2023-04-30T10:22:51;13.20;99.90
5059;DHT22;2548;52.050;11.036;2023-04-30T10:25:19;13.30;99.90
5059;DHT22;2548;52.050;11.036;2023-04-30T10:27:48;13.50;99.90
5059;DHT22;2548;52.050;11.036;2023-04-30T10:30:16;13.50;99.90
5059;DHT22;2548;52.050;11.036;2023-04-30T10:32:50;13.40;99.90
5059;DHT22;2548;52.050;11.036;2023-04-30T10:47:36;13.50;99.90
5059;DHT22;2548;52.050;11.036;2023-04-30T10:50:07;14.00;99.90
5059;DHT22;2548;52.050;11.036;2023-04-30T10:52:37;13.80;99.90
5059;DHT22;2548;52.050;11.036;2023-04-30T10:55:16;13.70;99.90
5059;DHT22;2548;52.050;11.036;2023-04-30T10:57:44;13.80;99.90
5059;DHT22;2548;52.050;11.036;2023-04-30T11:00:24;13.90;99.90
5059;DHT22;2548;52.050;11.036;2023-04-30T11:02:57;14.00;99.90
5059;DHT22;2548;52.050;11.036;2023-04-30T11:05:35;14.00;99.90
5059;DHT22;2548;52.050;11.036;2023-04-30T11:08:04;14.00;99.90
5059;DHT22;2548;52.050;11.036;2023-04-30T11:10:33;14.00;99.90
5059;DHT22;2548;52.050;11.036;2023-04-30T11:13:03;14.20;99.90
5059;DHT22;2548;52.050;11.036;2023-04-30T11:15:33;14.30;99.90
5059;DHT22;2548;52.050;11.036;2023-04-30T11:18:07;14.20;99.90
5059;DHT22;2548;52.050;11.036;2023-04-30T11:20:39;14.30;99.90
5059;DHT22;2548;52.050;11.036;2023-04-30T11:23:10;14.30;99.70
5059;DHT22;2548;52.050;11.036;2023-04-30T11:25:41;14.40;98.90
5059;DHT22;2548;52.050;11.036;2023-04-30T11:28:13;14.50;98.90
5059;DHT22;2548;52.050;11.036;2023-04-30T11:30:50;14.50;99.90
5059;DHT22;2548;52.050;11.036;2023-04-30T11:33:29;14.40;99.70
5059;DHT22;2548;52.050;11.036;2023-04-30T11:35:58;14.60;98.70
5059;DHT22;2548;52.050;11.036;2023-04-30T11:38:26;14.60;98.90
5059;DHT22;2548;52.050;11.036;2023-04-30T11:40:55;14.60;98.10
5059;DHT22;2548;52.050;11.036;2023-04-30T11:43:27;14.80;97.60
5059;DHT22;2548;52.050;11.036;2023-04-30T11:46:09;14.90;96.00
5059;DHT22;2548;52.050;11.036;2023-04-30T11:48:40;15.10;96.30
5059;DHT22;2548;52.050;11.036;2023-04-30T11:51:21;15.20;96.90
5059;DHT22;2548;52.050;11.036;2023-04-30T11:53:51;15.40;99.50
5059;DHT22;2548;52.050;11.036;2023-04-30T11:56:23;15.40;97.40
5059;DHT22;2548;52.050;11.036;2023-04-30T11:58:53;15.20;97.20
5059;DHT22;2548;52.050;11.036;2023-04-30T12:01:21;15.30;97.20
5059;DHT22;2548;52.050;11.036;2023-04-30T12:03:56;15.40;97.60
5059;DHT22;2548;52.050;11.036;2023-04-30T12:06:26;15.30;95.80
5059;DHT22;2548;52.050;11.036;2023-04-30T12:08:54;15.30;96.10
5059;DHT22;2548;52.050;11.036;2023-04-30T12:11:24;15.40;96.90
5059;DHT22;2548;52.050;11.036;2023-04-30T12:13:53;15.40;96.30
5059;DHT22;2548;52.050;11.036;2023-04-30T12:16:22;15.30;97.10
5059;DHT22;2548;52.050;11.036;2023-04-30T12:18:50;15.20;96.40
5059;DHT22;2548;52.050;11.036;2023-04-30T12:21:21;15.10;96.70
5059;DHT22;2548;52.050;11.036;2023-04-30T12:23:49;15.30;97.30
5059;DHT22;2548;52.050;11.036;2023-04-30T12:26:17;15.60;97.20
5059;DHT22;2548;52.050;11.036;2023-04-30T12:28:46;15.70;95.70
5059;DHT22;2548;52.050;11.036;2023-04-30T12:31:16;15.90;95.50
5059;DHT22;2548;52.050;11.036;2023-04-30T12:33:52;16.10;97.20
5059;DHT22;2548;52.050;11.036;2023-04-30T12:36:30;16.10;95.80
5059;DHT22;2548;52.050;11.036;2023-04-30T12:39:08;16.00;95.00
5059;DHT22;2548;52.050;11.036;2023-04-30T12:41:39;15.90;95.50
5059;DHT22;2548;52.050;11.036;2023-04-30T12:44:15;16.00;96.80
5059;DHT22;2548;52.050;11.036;2023-04-30T12:46:43;16.30;96.50
5059;DHT22;2548;52.050;11.036;2023-04-30T12:49:11;16.40;95.50
5059;DHT22;2548;52.050;11.036;2023-04-30T12:51:43;16.20;96.30
5059;DHT22;2548;52.050;11.036;2023-04-30T12:54:10;16.20;95.30
5059;DHT22;2548;52.050;11.036;2023-04-30T12:56:38;16.20;94.30
5059;DHT22;2548;52.050;11.036;2023-04-30T12:59:14;16.20;95.40
5059;DHT22;2548;52.050;11.036;2023-04-30T13:01:45;16.30;94.70
5059;DHT22;2548;52.050;11.036;2023-04-30T13:04:13;16.10;94.90
5059;DHT22;2548;52.050;11.036;2023-04-30T13:06:45;16.20;95.80
5059;DHT22;2548;52.050;11.036;2023-04-30T13:09:12;16.20;95.40
5059;DHT22;2548;52.050;11.036;2023-04-30T13:11:40;16.40;96.10
5059;DHT22;2548;52.050;11.036;2023-04-30T13:14:08;16.50;94.50
5059;DHT22;2548;52.050;11.036;2023-04-30T13:16:38;16.50;94.40
5059;DHT22;2548;52.050;11.036;2023-04-30T13:19:06;16.50;95.20
5059;DHT22;2548;52.050;11.036;2023-04-30T13:21:34;16.50;94.50
5059;DHT22;2548;52.050;11.036;2023-04-30T13:24:04;16.50;94.00
5059;DHT22;2548;52.050;11.036;2023-04-30T13:26:31;16.40;94.90
5059;DHT22;2548;52.050;11.036;2023-04-30T13:28:59;16.40;93.80
5059;DHT22;2548;52.050;11.036;2023-04-30T13:31:27;16.30;93.70
5059;DHT22;2548;52.050;11.036;2023-04-30T13:33:55;16.50;95.30
5059;DHT22;2548;52.050;11.036;2023-04-30T13:36:23;16.70;95.00
5059;DHT22;2548;52.050;11.036;2023-04-30T13:38:50;16.70;95.90
5059;DHT22;2548;52.050;11.036;2023-04-30T13:41:19;16.90;94.60
5059;DHT22;2548;52.050;11.036;2023-04-30T13:43:48;17.10;95.40
5059;DHT22;2548;52.050;11.036;2023-04-30T13:46:15;17.20;96.90
5059;DHT22;2548;52.050;11.036;2023-04-30T13:48:43;17.20;97.20
5059;DHT22;2548;52.050;11.036;2023-04-30T13:51:13;17.20;97.00
5059;DHT22;2548;52.050;11.036;2023-04-30T13:53:41;17.10;96.40
5059;DHT22;2548;52.050;11.036;2023-04-30T13:56:09;16.90;95.50
5059;DHT22;2548;52.050;11.036;2023-04-30T13:58:38;16.70;94.80
5059;DHT22;2548;52.050;11.036;2023-04-30T14:01:05;16.60;94.20
5059;DHT22;2548;52.050;11.036;2023-04-30T14:03:33;16.60;93.80
5059;DHT22;2548;52.050;11.036;2023-04-30T14:06:01;16.50;94.90
5059;DHT22;2548;52.050;11.036;2023-04-30T14:08:28;16.60;94.90
5059;DHT22;2548;52.050;11.036;2023-04-30T14:10:58;16.70;95.20
5059;DHT22;2548;52.050;11.036;2023-04-30T14:13:26;16.80;94.60
5059;DHT22;2548;52.050;11.036;2023-04-30T14:15:56;16.80;95.80
5059;DHT22;2548;52.050;11.036;2023-04-30T14:18:23;16.80;94.60
5059;DHT22;2548;52.050;11.036;2023-04-30T14:20:51;16.80;95.90
5059;DHT22;2548;52.050;11.036;2023-04-30T14:23:19;16.70;95.80
5059;DHT22;2548;52.050;11.036;2023-04-30T14:25:47;16.50;93.80
5059;DHT22;2548;52.050;11.036;2023-04-30T14:28:15;16.40;95.40
5059;DHT22;2548;52.050;11.036;2023-04-30T14:30:43;16.60;96.10
5059;DHT22;2548;52.050;11.036;2023-04-30T14:33:12;16.70;95.00
5059;DHT22;2548;52.050;11.036;2023-04-30T14:35:40;16.70;95.90
5059;DHT22;2548;52.050;11.036;2023-04-30T14:38:08;16.80;94.90
5059;DHT22;2548;52.050;11.036;2023-04-30T14:40:36;16.90;95.10
5059;DHT22;2548;52.050;11.036;2023-04-30T14:43:03;17.00;93.50
5059;DHT22;2548;52.050;11.036;2023-04-30T14:45:32;17.10;95.10
5059;DHT22;2548;52.050;11.036;2023-04-30T14:48:02;17.00;92.90
5059;DHT22;2548;52.050;11.036;2023-04-30T14:50:31;17.10;93.10
5059;DHT22;2548;52.050;11.036;2023-04-30T14:52:59;17.20;94.10
5059;DHT22;2548;52.050;11.036;2023-04-30T14:55:27;17.10;93.80
5059;DHT22;2548;52.050;11.036;2023-04-30T14:57:54;17.00;94.70
5059;DHT22;2548;52.050;11.036;2023-04-30T15:00:22;17.00;93.40
5059;DHT22;2548;52.050;11.036;2023-04-30T15:02:50;17.00;92.90
5059;DHT22;2548;52.050;11.036;2023-04-30T15:05:17;17.00;94.80
5059;DHT22;2548;52.050;11.036;2023-04-30T15:07:47;17.00;93.20
5059;DHT22;2548;52.050;11.036;2023-04-30T15:10:15;17.10;94.20
5059;DHT22;2548;52.050;11.036;2023-04-30T15:12:43;17.00;92.50
5059;DHT22;2548;52.050;11.036;2023-04-30T15:15:11;17.00;92.70
5059;DHT22;2548;52.050;11.036;2023-04-30T15:17:38;16.90;92.90
5059;DHT22;2548;52.050;11.036;2023-04-30T15:20:07;16.80;93.40
5059;DHT22;2548;52.050;11.036;2023-04-30T15:22:35;16.90;94.00
5059;DHT22;2548;52.050;11.036;2023-04-30T15:25:05;16.90;93.40
5059;DHT22;2548;52.050;11.036;2023-04-30T15:27:32;16.90;94.50
5059;DHT22;2548;52.050;11.036;2023-04-30T15:30:02;17.00;93.90
5059;DHT22;2548;52.050;11.036;2023-04-30T15:32:30;16.80;92.40
5059;DHT22;2548;52.050;11.036;2023-04-30T15:34:57;16.80;92.60
5059;DHT22;2548;52.050;11.036;2023-04-30T15:37:25;16.70;93.90
5059;DHT22;2548;52.050;11.036;2023-04-30T15:39:53;16.80;93.70
5059;DHT22;2548;52.050;11.036;2023-04-30T15:42:22;16.90;93.50
5059;DHT22;2548;52.050;11.036;2023-04-30T15:44:50;16.90;92.60
5059;DHT22;2548;52.050;11.036;2023-04-30T15:47:18;16.90;92.50
5059;DHT22;2548;52.050;11.036;2023-04-30T15:49:46;16.80;92.10
5059;DHT22;2548;52.050;11.036;2023-04-30T15:52:14;16.70;91.20
5059;DHT22;2548;52.050;11.036;2023-04-30T15:54:41;16.50;92.40
5059;DHT22;2548;52.050;11.036;2023-04-30T15:57:09;16.60;93.60
5059;DHT22;2548;52.050;11.036;2023-04-30T15:59:38;16.60;91.20
5059;DHT22;2548;52.050;11.036;2023-04-30T16:02:06;16.40;92.30
5059;DHT22;2548;52.050;11.036;2023-04-30T16:04:34;16.40;92.40
5059;DHT22;2548;52.050;11.036;2023-04-30T16:07:02;16.40;91.40
5059;DHT22;2548;52.050;11.036;2023-04-30T16:09:30;16.40;91.90
5059;DHT22;2548;52.050;11.036;2023-04-30T16:11:58;16.40;92.10
5059;DHT22;2548;52.050;11.036;2023-04-30T16:14:25;16.40;93.40
5059;DHT22;2548;52.050;11.036;2023-04-30T16:16:55;16.40;91.60
5059;DHT22;2548;52.050;11.036;2023-04-30T16:19:22;16.50;93.40